createdAt,value
2018-09-25T00:00:02.803Z,7.2
2018-09-25T00:15:03.117Z,7.2
2018-09-25T00:30:02.530Z,7.1
2018-09-25T00:45:02.872Z,6.8
2018-09-25T01:00:03.213Z,6.8
2018-09-25T01:15:02.507Z,6.6
2018-09-25T01:30:03.007Z,6.2
2018-09-25T01:45:02.418Z,6.2
2018-09-25T02:00:02.906Z,6.1
2018-09-25T02:15:03.224Z,5.9
2018-09-25T02:30:02.619Z,5.9
2018-09-25T02:45:03.025Z,5.6
2018-09-25T03:00:02.328Z,5.7
2018-09-25T03:15:02.756Z,5.5
2018-09-25T03:30:03.235Z,5.4
2018-09-25T03:45:02.670Z,5.6
2018-09-25T04:00:03.040Z,5.6
2018-09-25T04:15:02.377Z,5.6
2018-09-25T04:30:02.822Z,5.7
2018-09-25T04:45:03.133Z,5.8
2018-09-25T05:00:02.468Z,5.9
2018-09-25T05:15:02.906Z,5.9
2018-09-25T05:30:02.386Z,6.2
2018-09-25T05:45:02.761Z,6.3
2018-09-25T06:00:04.301Z,6.4
2018-09-25T06:15:02.626Z,6.4
2018-09-25T06:30:03.156Z,6.6
2018-09-25T06:45:02.537Z,7
2018-09-25T07:00:02.868Z,7.1
2018-09-25T07:15:03.177Z,7.3
2018-09-25T07:30:02.597Z,7.6
2018-09-25T07:45:02.922Z,8.2
2018-09-25T08:00:03.232Z,8.6
2018-09-25T08:15:02.598Z,9.1
2018-09-25T08:30:03.010Z,9.6
2018-09-25T08:45:02.335Z,10.3
2018-09-25T09:00:02.682Z,10.5
2018-09-25T09:15:02.986Z,10.8
2018-09-25T09:30:02.397Z,11.3
2018-09-25T09:45:02.738Z,11.7
2018-09-25T10:00:03.099Z,11.8
2018-09-25T10:15:02.416Z,12.2
2018-09-25T10:30:02.806Z,12.2
2018-09-25T10:45:03.961Z,11.3
2018-09-25T11:00:02.318Z,13.6
2018-09-25T11:15:02.631Z,12.3
2018-09-25T11:30:03.082Z,12.3
2018-09-25T11:45:02.452Z,14.1
2018-09-25T12:00:02.833Z,13.2
2018-09-25T12:15:03.957Z,13.5
2018-09-25T12:30:03.199Z,14.5
2018-09-25T12:45:02.532Z,13.7
2018-09-25T13:00:03.637Z,12.6
2018-09-25T13:15:02.965Z,14.2
2018-09-25T13:30:02.440Z,15.1
2018-09-25T13:45:02.718Z,14.2
2018-09-25T14:00:03.059Z,13.7
2018-09-25T14:15:02.409Z,13.5
2018-09-25T14:30:03.616Z,13.5
2018-09-25T14:45:02.927Z,14.2
2018-09-25T15:00:03.257Z,13.1
2018-09-25T15:15:02.586Z,13.3
2018-09-25T15:30:02.992Z,12.8
2018-09-25T15:45:03.965Z,12.2
2018-09-25T16:00:02.340Z,12.1
2018-09-25T16:15:02.711Z,12
2018-09-25T16:30:03.925Z,11.8
2018-09-25T16:45:03.210Z,11.1
2018-09-25T17:00:03.379Z,10.4
2018-09-25T17:15:03.520Z,9.6
2018-09-25T17:30:03.714Z,9.3
2018-09-25T17:45:03.887Z,8.8
2018-09-25T18:00:04.674Z,8.4
2018-09-25T18:15:03.045Z,7.9
2018-09-25T18:30:02.464Z,7.7
2018-09-25T18:45:02.774Z,7.4
2018-09-25T19:00:03.120Z,7
2018-09-25T19:15:02.402Z,6.9
2018-09-25T19:30:02.840Z,6.8
2018-09-25T19:45:03.185Z,6.4
2018-09-25T20:00:02.548Z,6.2
2018-09-25T20:15:03.674Z,5.9
2018-09-25T20:30:03.125Z,5.9
2018-09-25T20:45:02.500Z,5.7
2018-09-25T21:00:02.867Z,5.6
2018-09-25T21:15:03.251Z,5.3
2018-09-25T21:30:02.662Z,5.1
2018-09-25T21:45:03.933Z,4.7
2018-09-25T22:00:02.530Z,4.5
2018-09-25T22:15:03.284Z,4.4
2018-09-25T22:30:03.498Z,4.5
2018-09-25T22:45:02.943Z,4.1
2018-09-25T23:00:03.294Z,4.1
2018-09-25T23:15:02.706Z,4.1
2018-09-25T23:30:03.103Z,3.8
2018-09-25T23:45:02.394Z,3.6
